createdAt,value
2017-05-17T00:00:23.027Z,87.37
2017-05-17T00:01:35.584Z,87.94
2017-05-17T00:02:48.143Z,87.8
2017-05-17T00:04:00.705Z,87.61
2017-05-17T00:05:12.948Z,87.37
2017-05-17T00:06:25.151Z,87.8
2017-05-17T00:07:37.665Z,87.32
2017-05-17T00:08:50.510Z,87.7
2017-05-17T00:10:03.035Z,87.8
2017-05-17T00:11:15.556Z,87.7
2017-05-17T00:12:28.106Z,87.13
2017-05-17T00:13:40.655Z,87.7
2017-05-17T00:14:53.231Z,87.32
2017-05-17T00:16:05.797Z,87.41
2017-05-17T00:17:18.042Z,87.8
2017-05-17T00:18:30.589Z,87.61
2017-05-17T00:19:43.431Z,87.99
2017-05-17T00:20:55.998Z,88.66
2017-05-17T00:22:08.523Z,88.47
2017-05-17T00:23:21.069Z,89.23
2017-05-17T00:24:33.618Z,89.04
2017-05-17T00:25:46.153Z,89.33
2017-05-17T00:26:58.681Z,89.33
2017-05-17T00:28:11.228Z,89.33
2017-05-17T00:29:23.466Z,89.23
2017-05-17T00:30:36.317Z,89.23
2017-05-17T00:31:48.838Z,88.85
2017-05-17T00:33:01.381Z,88.85
2017-05-17T00:34:13.936Z,88.56
2017-05-17T00:35:26.470Z,88.28
2017-05-17T00:36:39.002Z,88.47
2017-05-17T00:37:51.240Z,88.47
2017-05-17T00:39:03.783Z,88.66
2017-05-17T00:40:16.308Z,88.76
2017-05-17T00:41:28.554Z,88.66
2017-05-17T00:42:41.103Z,88.47
2017-05-17T00:43:53.645Z,88.76
2017-05-17T00:45:06.171Z,88.37
2017-05-17T00:46:18.693Z,88.76
2017-05-17T00:47:31.233Z,88.47
2017-05-17T00:48:43.786Z,88.47
2017-05-17T00:49:56.326Z,88.76
2017-05-17T00:51:08.569Z,87.99
2017-05-17T00:52:21.090Z,88.37
2017-05-17T00:53:33.334Z,88.18
2017-05-17T00:54:45.841Z,88.18
2017-05-17T00:55:58.433Z,88.18
2017-05-17T00:57:10.682Z,88.23
2017-05-17T00:58:23.221Z,87.9
2017-05-17T00:59:35.742Z,88.47
2017-05-17T01:00:48.273Z,88.13
2017-05-17T01:02:00.505Z,87.99
2017-05-17T01:03:12.733Z,88.09
2017-05-17T01:04:25.300Z,87.95
2017-05-17T01:05:37.851Z,88.09
2017-05-17T01:06:50.396Z,87.85
2017-05-17T01:08:02.943Z,87.85
2017-05-17T01:09:15.209Z,87.56
2017-05-17T01:10:27.509Z,87.99
2017-05-17T01:11:40.058Z,88.04
2017-05-17T01:12:52.621Z,87.8
2017-05-17T01:14:04.851Z,88.37
2017-05-17T01:15:17.389Z,87.66
2017-05-17T01:16:29.914Z,88.04
2017-05-17T01:17:41.860Z,88.23
2017-05-17T01:18:54.403Z,87.8
2017-05-17T01:20:06.948Z,88.37
2017-05-17T01:21:19.493Z,88.43
2017-05-17T01:22:32.036Z,87.85
2017-05-17T01:23:44.593Z,88.43
2017-05-17T01:24:56.828Z,88.13
2017-05-17T01:26:09.061Z,88.43
2017-05-17T01:27:21.597Z,88.13
2017-05-17T01:28:34.191Z,87.56
2017-05-17T01:29:46.724Z,87.95
2017-05-17T01:30:59.245Z,88.04
2017-05-17T01:32:11.478Z,87.95
2017-05-17T01:33:24.028Z,87.95
2017-05-17T01:34:36.577Z,87.95
2017-05-17T01:35:48.828Z,87.95
2017-05-17T01:37:01.390Z,88.23
2017-05-17T01:38:13.940Z,88.04
2017-05-17T01:39:26.158Z,88.13
2017-05-17T01:40:38.709Z,87.95
2017-05-17T01:41:51.257Z,88.33
2017-05-17T01:43:03.515Z,87.95
2017-05-17T01:44:15.765Z,87.85
2017-05-17T01:45:28.310Z,87.66
2017-05-17T01:46:40.858Z,88.04
2017-05-17T01:47:53.388Z,88.04
2017-05-17T01:49:05.932Z,87.95
2017-05-17T01:50:18.167Z,88.23
2017-05-17T01:51:30.687Z,87.85
2017-05-17T01:52:43.209Z,87.95
2017-05-17T01:53:55.765Z,87.47
2017-05-17T01:55:08.325Z,87.47
2017-05-17T01:56:20.871Z,87.56
2017-05-17T01:57:33.720Z,87.56
2017-05-17T01:58:46.266Z,87.76
2017-05-17T01:59:58.808Z,88.04
2017-05-17T02:01:11.009Z,87.85
2017-05-17T02:02:23.538Z,88.13
2017-05-17T02:03:36.073Z,87.95
2017-05-17T02:04:48.622Z,87.85
2017-05-17T02:06:01.200Z,87.95
2017-05-17T02:07:13.742Z,87.76
2017-05-17T02:08:26.509Z,88.23
2017-05-17T02:09:39.038Z,88.33
2017-05-17T02:10:51.561Z,88.23
2017-05-17T02:12:03.803Z,88.43
2017-05-17T02:13:16.356Z,88.23
2017-05-17T02:14:28.885Z,87.95
2017-05-17T02:15:41.456Z,87.66
2017-05-17T02:16:53.985Z,87.95
2017-05-17T02:18:06.225Z,87.85
2017-05-17T02:19:18.770Z,88.13
2017-05-17T02:20:31.303Z,87.85
2017-05-17T02:21:43.868Z,87.66
2017-05-17T02:22:56.421Z,87.76
2017-05-17T02:24:08.962Z,87.76
2017-05-17T02:25:21.775Z,87.85
2017-05-17T02:26:34.322Z,88.43
2017-05-17T02:27:46.876Z,88.04
2017-05-17T02:28:59.418Z,87.95
2017-05-17T02:30:11.661Z,88.43
2017-05-17T02:31:24.202Z,87.95
2017-05-17T02:32:36.734Z,88
2017-05-17T02:33:49.277Z,87.43
2017-05-17T02:35:01.815Z,87.56
2017-05-17T02:36:14.398Z,87.9
2017-05-17T02:37:26.940Z,88
2017-05-17T02:38:39.177Z,88
2017-05-17T02:39:51.673Z,87.81
2017-05-17T02:41:04.502Z,87.71
2017-05-17T02:42:17.048Z,87.9
2017-05-17T02:43:29.287Z,88
2017-05-17T02:44:41.823Z,88
2017-05-17T02:45:54.361Z,88.09
2017-05-17T02:47:06.887Z,87.9
2017-05-17T02:48:19.429Z,88.09
2017-05-17T02:49:31.975Z,88.19
2017-05-17T02:50:44.546Z,88.19
2017-05-17T02:51:56.458Z,88.19
2017-05-17T02:53:08.978Z,88.48
2017-05-17T02:54:21.511Z,88.38
2017-05-17T02:55:34.028Z,88.48
2017-05-17T02:56:46.274Z,88.67
2017-05-17T02:57:58.497Z,88.38
2017-05-17T02:59:11.045Z,88.57
2017-05-17T03:00:23.583Z,88.57
2017-05-17T03:01:36.137Z,88.43
2017-05-17T03:02:48.421Z,88.43
2017-05-17T03:04:00.929Z,88.43
2017-05-17T03:05:13.200Z,88.53
2017-05-17T03:06:25.459Z,88.53
2017-05-17T03:07:37.955Z,88.62
2017-05-17T03:08:50.812Z,89.01
2017-05-17T03:10:03.382Z,88.53
2017-05-17T03:11:15.346Z,89.2
2017-05-17T03:12:27.592Z,88.81
2017-05-17T03:13:39.846Z,88.81
2017-05-17T03:14:52.409Z,88.72
2017-05-17T03:16:04.954Z,89.1
2017-05-17T03:17:17.177Z,89.29
2017-05-17T03:18:29.718Z,89.29
2017-05-17T03:19:42.239Z,89.2
2017-05-17T03:20:54.797Z,89.67
2017-05-17T03:22:07.305Z,89.39
2017-05-17T03:23:19.233Z,89.58
2017-05-17T03:24:32.058Z,89.67
2017-05-17T03:25:44.592Z,89.58
2017-05-17T03:26:56.822Z,89.29
2017-05-17T03:28:09.049Z,89.29
2017-05-17T03:29:21.307Z,89.96
2017-05-17T03:30:33.855Z,90.34
2017-05-17T03:31:46.399Z,90.16
2017-05-17T03:32:58.953Z,90.06
2017-05-17T03:34:11.503Z,89.87
2017-05-17T03:35:23.746Z,89.67
2017-05-17T03:36:36.269Z,89.77
2017-05-17T03:37:48.511Z,90.06
2017-05-17T03:39:01.059Z,89.96
2017-05-17T03:40:13.622Z,90.06
2017-05-17T03:41:25.565Z,90.06
2017-05-17T03:42:38.096Z,90.34
2017-05-17T03:43:50.618Z,89.96
2017-05-17T03:45:02.865Z,89.96
2017-05-17T03:46:15.435Z,89.87
2017-05-17T03:47:27.977Z,90.16
2017-05-17T03:48:40.502Z,89.87
2017-05-17T03:49:53.019Z,89.96
2017-05-17T03:51:05.546Z,90.06
2017-05-17T03:52:18.079Z,90.06
2017-05-17T03:53:30.328Z,89.77
2017-05-17T03:54:42.872Z,89.87
2017-05-17T03:55:55.099Z,89.87
2017-05-17T03:57:07.923Z,90.06
2017-05-17T03:58:19.869Z,90.25
2017-05-17T03:59:32.416Z,90.25
2017-05-17T04:00:44.653Z,90.06
2017-05-17T04:01:57.207Z,90.44
2017-05-17T04:03:09.767Z,90.25
2017-05-17T04:04:22.319Z,90.06
2017-05-17T04:05:34.562Z,89.96
2017-05-17T04:06:47.093Z,89.87
2017-05-17T04:07:59.632Z,90.06
2017-05-17T04:09:12.150Z,89.96
2017-05-17T04:10:24.699Z,90.06
2017-05-17T04:11:36.615Z,90.06
2017-05-17T04:12:49.135Z,90.16
2017-05-17T04:14:01.659Z,90.1
2017-05-17T04:15:13.913Z,90.3
2017-05-17T04:16:26.150Z,90.01
2017-05-17T04:17:38.681Z,90.1
2017-05-17T04:18:51.542Z,90.01
2017-05-17T04:20:04.110Z,89.91
2017-05-17T04:21:16.333Z,89.72
2017-05-17T04:22:28.862Z,89.72
2017-05-17T04:23:41.409Z,89.72
2017-05-17T04:24:53.621Z,89.53
2017-05-17T04:26:06.196Z,89.43
2017-05-17T04:27:17.518Z,89.58
2017-05-17T04:28:30.060Z,89.53
2017-05-17T04:29:42.005Z,89.38
2017-05-17T04:30:54.577Z,89
2017-05-17T04:32:07.144Z,88.23
2017-05-17T04:33:19.393Z,88.62
2017-05-17T04:34:31.922Z,88.62
2017-05-17T04:35:44.159Z,87.76
2017-05-17T04:36:56.707Z,87.85
2017-05-17T04:38:09.233Z,88.18
2017-05-17T04:39:21.778Z,87.8
2017-05-17T04:40:34.318Z,87.23
2017-05-17T04:41:46.561Z,87.13
2017-05-17T04:42:59.089Z,87.23
2017-05-17T04:44:11.331Z,87.03
2017-05-17T04:45:23.877Z,87.03
2017-05-17T04:46:36.423Z,87.17
2017-05-17T04:47:48.955Z,86.41
2017-05-17T04:49:01.522Z,85.64
2017-05-17T04:50:14.083Z,85.16
2017-05-17T04:51:26.636Z,85.16
2017-05-17T04:52:39.185Z,85.06
2017-05-17T04:53:51.706Z,85.74
2017-05-17T04:55:04.265Z,85.64
2017-05-17T04:56:16.794Z,85.01
2017-05-17T04:57:29.318Z,85.11
2017-05-17T04:58:41.578Z,85.21
2017-05-17T04:59:54.087Z,85.88
2017-05-17T05:01:06.297Z,85.78
2017-05-17T05:02:18.827Z,85.58
2017-05-17T05:03:31.394Z,85.68
2017-05-17T05:04:43.915Z,85.92
2017-05-17T05:05:55.839Z,85.82
2017-05-17T05:07:08.081Z,84.95
2017-05-17T05:08:20.349Z,85.34
2017-05-17T05:09:32.891Z,85.15
2017-05-17T05:10:45.417Z,84.38
2017-05-17T05:11:57.669Z,84.48
2017-05-17T05:13:09.908Z,84.48
2017-05-17T05:14:22.435Z,84.28
2017-05-17T05:15:34.700Z,84.38
2017-05-17T05:16:47.253Z,84.09
2017-05-17T05:17:59.496Z,84.14
2017-05-17T05:19:12.039Z,84.23
2017-05-17T05:20:24.605Z,84.14
2017-05-17T05:21:37.137Z,84.14
2017-05-17T05:22:49.680Z,83.56
2017-05-17T05:24:02.230Z,83.08
2017-05-17T05:25:14.466Z,83.56
2017-05-17T05:26:26.692Z,84.23
2017-05-17T05:27:39.231Z,84.23
2017-05-17T05:28:51.737Z,83.47
2017-05-17T05:30:04.272Z,84.04
2017-05-17T05:31:16.497Z,83.85
2017-05-17T05:32:29.026Z,83.08
2017-05-17T05:33:41.592Z,82.98
2017-05-17T05:34:54.131Z,82.41
2017-05-17T05:36:06.652Z,82.03
2017-05-17T05:37:18.573Z,82.79
2017-05-17T05:38:31.101Z,83.18
2017-05-17T05:39:43.669Z,83.56
2017-05-17T05:40:55.921Z,83.51
2017-05-17T05:42:08.485Z,83.65
2017-05-17T05:43:20.738Z,83.7
2017-05-17T05:44:32.977Z,83.6
2017-05-17T05:45:45.823Z,83.03
2017-05-17T05:46:58.376Z,83.22
2017-05-17T05:48:10.971Z,82.64
2017-05-17T05:49:23.485Z,82.74
2017-05-17T05:50:35.442Z,82.54
2017-05-17T05:51:47.977Z,83.03
2017-05-17T05:53:00.223Z,83.6
2017-05-17T05:54:12.773Z,82.74
2017-05-17T05:55:25.311Z,82.16
2017-05-17T05:56:37.533Z,82.16
2017-05-17T05:57:50.053Z,82.16
2017-05-17T05:59:02.606Z,82.16
2017-05-17T06:00:14.555Z,82.07
2017-05-17T06:01:26.870Z,82.35
2017-05-17T06:02:39.447Z,82.35
2017-05-17T06:03:52.015Z,81.43
2017-05-17T06:05:04.261Z,82.3
2017-05-17T06:06:16.200Z,82.87
2017-05-17T06:07:28.712Z,81.4
2017-05-17T06:08:40.625Z,80.38
2017-05-17T06:09:53.163Z,80.19
2017-05-17T06:11:05.395Z,79.32
2017-05-17T06:12:17.611Z,80.09
2017-05-17T06:13:30.150Z,79.8
2017-05-17T06:14:42.399Z,80.09
2017-05-17T06:15:54.945Z,79.9
2017-05-17T06:17:07.491Z,80.99
2017-05-17T06:18:20.359Z,81.48
2017-05-17T06:19:32.915Z,81.48
2017-05-17T06:20:45.465Z,81.48
2017-05-17T06:21:57.996Z,80.65
2017-05-17T06:23:10.228Z,80.36
2017-05-17T06:24:22.500Z,80.07
2017-05-17T06:25:34.733Z,79.35
2017-05-17T06:26:46.980Z,78.48
2017-05-17T06:27:59.538Z,77.61
2017-05-17T06:29:11.197Z,76.78
2017-05-17T06:30:23.703Z,76.5
2017-05-17T06:31:36.243Z,75.28
2017-05-17T06:32:48.784Z,75.23
2017-05-17T06:34:01.309Z,72.66
2017-05-17T06:35:13.862Z,69.57
2017-05-17T06:36:25.803Z,69.23
2017-05-17T06:37:38.332Z,67.52
2017-05-17T06:38:50.901Z,66.78
2017-05-17T06:40:03.743Z,65.63
2017-05-17T06:41:15.392Z,62.98
2017-05-17T06:42:27.939Z,62.79
2017-05-17T06:43:40.480Z,62.73
2017-05-17T06:44:53.027Z,60.92
2017-05-17T06:46:05.601Z,59.98
2017-05-17T06:47:17.568Z,59.43
2017-05-17T06:48:30.143Z,59.63
2017-05-17T06:49:42.714Z,56.56
2017-05-17T06:50:55.275Z,54.62
2017-05-17T06:52:07.251Z,54.94
2017-05-17T06:53:19.222Z,53.51
2017-05-17T06:54:31.786Z,53.7
2017-05-17T06:55:44.032Z,54.02
2017-05-17T06:56:56.563Z,53.37
2017-05-17T06:58:08.825Z,53.95
2017-05-17T06:59:21.056Z,51.93
2017-05-17T07:00:33.623Z,52.52
2017-05-17T07:01:46.187Z,54
2017-05-17T07:02:58.437Z,54.03
2017-05-17T07:04:10.703Z,53.16
2017-05-17T07:05:23.228Z,51.53
2017-05-17T07:06:35.505Z,50.95
2017-05-17T07:07:48.105Z,50.46
2017-05-17T07:09:00.691Z,49.71
2017-05-17T07:10:12.918Z,48.73
2017-05-17T07:11:25.183Z,48.95
2017-05-17T07:12:37.774Z,47.98
2017-05-17T07:13:50.003Z,47.49
2017-05-17T07:15:02.568Z,47.39
2017-05-17T07:16:15.096Z,47.39
2017-05-17T07:17:27.669Z,47.32
2017-05-17T07:18:40.187Z,47.42
2017-05-17T07:19:52.725Z,46.66
2017-05-17T07:21:05.261Z,47.63
2017-05-17T07:22:17.820Z,47.07
2017-05-17T07:23:30.346Z,45.03
2017-05-17T07:24:42.888Z,45.39
2017-05-17T07:25:55.119Z,46.3
2017-05-17T07:27:07.708Z,44.37
2017-05-17T07:28:20.262Z,45.92
2017-05-17T07:29:32.824Z,46.12
2017-05-17T07:30:44.774Z,45.54
2017-05-17T07:31:57.322Z,45.44
2017-05-17T07:33:09.885Z,45.65
2017-05-17T07:34:22.155Z,45.85
2017-05-17T07:35:34.758Z,45.68
2017-05-17T07:36:47.301Z,42.58
2017-05-17T07:37:59.871Z,42.97
2017-05-17T07:39:12.435Z,43.07
2017-05-17T07:40:25.013Z,43.26
2017-05-17T07:41:37.584Z,43.65
2017-05-17T07:42:50.129Z,44.14
2017-05-17T07:44:02.693Z,44.04
2017-05-17T07:45:14.622Z,42.3
2017-05-17T07:46:26.889Z,42.09
2017-05-17T07:47:39.439Z,42.77
2017-05-17T07:48:51.985Z,43.46
2017-05-17T07:50:04.560Z,43.65
2017-05-17T07:51:16.831Z,43.77
2017-05-17T07:52:29.403Z,42.29
2017-05-17T07:53:41.948Z,42.5
2017-05-17T07:54:54.509Z,41.03
2017-05-17T07:56:06.456Z,41.13
2017-05-17T07:57:19.010Z,41.72
2017-05-17T07:58:31.570Z,41.21
2017-05-17T07:59:43.794Z,42.4
2017-05-17T08:00:56.362Z,42.3
2017-05-17T08:02:08.890Z,43.18
2017-05-17T08:03:21.145Z,42.91
2017-05-17T08:04:33.707Z,42.42
2017-05-17T08:05:45.973Z,41.74
2017-05-17T08:06:58.553Z,41.35
2017-05-17T08:08:11.128Z,40.97
2017-05-17T08:09:23.408Z,40.58
2017-05-17T08:10:35.957Z,41.17
2017-05-17T08:11:48.499Z,42.15
2017-05-17T08:13:01.071Z,42.44
2017-05-17T08:14:13.620Z,41.17
2017-05-17T08:15:26.203Z,41
2017-05-17T08:16:38.763Z,41.58
2017-05-17T08:17:51.582Z,41.29
2017-05-17T08:19:04.174Z,41.68
2017-05-17T08:20:16.447Z,41.49
2017-05-17T08:21:28.992Z,41.68
2017-05-17T08:22:41.541Z,41.5
2017-05-17T08:23:53.813Z,41.68
2017-05-17T08:25:06.111Z,41.68
2017-05-17T08:26:18.650Z,41.7
2017-05-17T08:27:31.196Z,42.17
2017-05-17T08:28:43.777Z,41.97
2017-05-17T08:29:56.021Z,41.39
2017-05-17T08:31:07.991Z,40.8
2017-05-17T08:32:20.237Z,41.36
2017-05-17T08:33:32.508Z,41.56
2017-05-17T08:34:45.074Z,41.64
2017-05-17T08:35:57.645Z,41.74
2017-05-17T08:37:09.923Z,41.62
2017-05-17T08:38:22.458Z,42.01
2017-05-17T08:39:35.058Z,42.38
2017-05-17T08:40:47.330Z,42.58
2017-05-17T08:41:59.959Z,43.16
2017-05-17T08:43:11.930Z,43.26
2017-05-17T08:44:24.478Z,43.04
2017-05-17T08:45:37.038Z,42.75
2017-05-17T08:46:49.017Z,44.6
2017-05-17T08:48:01.577Z,43.8
2017-05-17T08:49:14.127Z,44.37
2017-05-17T08:50:26.726Z,45.54
2017-05-17T08:51:39.273Z,45.73
2017-05-17T08:52:51.835Z,45.25
2017-05-17T08:54:04.389Z,45.34
2017-05-17T08:55:16.638Z,45.15
2017-05-17T08:56:29.201Z,45.81
2017-05-17T08:57:41.785Z,45.22
2017-05-17T08:58:54.418Z,45.32
2017-05-17T09:00:06.722Z,44.81
2017-05-17T09:01:18.682Z,45.03
2017-05-17T09:02:31.187Z,44.83
2017-05-17T09:03:43.757Z,44.73
2017-05-17T09:04:56.331Z,45.32
2017-05-17T09:06:08.265Z,45.71
2017-05-17T09:07:20.793Z,46.59
2017-05-17T09:08:33.065Z,45.32
2017-05-17T09:09:45.406Z,45.81
2017-05-17T09:10:57.960Z,46.39
2017-05-17T09:12:09.956Z,46.1
2017-05-17T09:13:22.202Z,45.9
2017-05-17T09:14:34.740Z,45.92
2017-05-17T09:15:46.994Z,45.44
2017-05-17T09:16:58.964Z,45.83
2017-05-17T09:18:10.935Z,46.7
2017-05-17T09:19:23.521Z,46.83
2017-05-17T09:20:35.794Z,45.85
2017-05-17T09:21:48.366Z,44.87
2017-05-17T09:23:00.933Z,45.75
2017-05-17T09:24:13.206Z,46.14
2017-05-17T09:25:24.882Z,44.68
2017-05-17T09:26:37.454Z,44.38
2017-05-17T09:27:49.724Z,44.48
2017-05-17T09:29:02.288Z,45.07
2017-05-17T09:30:14.833Z,45.17
2017-05-17T09:31:27.408Z,44.17
2017-05-17T09:32:39.661Z,44.46
2017-05-17T09:33:52.225Z,44.07
2017-05-17T09:35:04.795Z,44.07
2017-05-17T09:36:17.363Z,44.09
2017-05-17T09:37:29.908Z,44.09
2017-05-17T09:38:42.487Z,43.51
2017-05-17T09:39:55.030Z,43.8
2017-05-17T09:41:07.281Z,44.09
2017-05-17T09:42:19.522Z,45.09
2017-05-17T09:43:31.791Z,44.8
2017-05-17T09:44:44.371Z,42.85
2017-05-17T09:45:56.943Z,43.33
2017-05-17T09:47:09.509Z,43.53
2017-05-17T09:48:21.772Z,43.85
2017-05-17T09:49:34.318Z,43.55
2017-05-17T09:50:46.875Z,43.65
2017-05-17T09:51:59.159Z,43.16
2017-05-17T09:53:11.106Z,43.36
2017-05-17T09:54:23.677Z,43.77
2017-05-17T09:55:36.225Z,44.55
2017-05-17T09:56:48.804Z,43.48
2017-05-17T09:58:01.100Z,43.77
2017-05-17T09:59:13.064Z,44.35
2017-05-17T10:00:25.638Z,44.16
2017-05-17T10:01:37.613Z,43.18
2017-05-17T10:02:49.573Z,42.5
2017-05-17T10:04:02.123Z,42.42
2017-05-17T10:05:14.390Z,42.42
2017-05-17T10:06:26.947Z,42.91
2017-05-17T10:07:39.539Z,42.64
2017-05-17T10:08:52.142Z,41.68
2017-05-17T10:10:04.685Z,41.97
2017-05-17T10:11:16.070Z,40.43
2017-05-17T10:12:28.643Z,40.74
2017-05-17T10:13:41.224Z,39.96
2017-05-17T10:14:53.790Z,40.37
2017-05-17T10:16:06.056Z,40.17
2017-05-17T10:17:17.732Z,40.19
2017-05-17T10:18:30.281Z,40
2017-05-17T10:19:42.844Z,39.53
2017-05-17T10:20:55.124Z,38.76
2017-05-17T10:22:07.367Z,38.56
2017-05-17T10:23:19.965Z,38.39
2017-05-17T10:24:32.236Z,38.5
2017-05-17T10:25:44.811Z,38.03
2017-05-17T10:26:57.349Z,37.63
2017-05-17T10:28:09.615Z,37.26
2017-05-17T10:29:21.858Z,37.18
2017-05-17T10:30:34.462Z,36
2017-05-17T10:31:47.003Z,34.54
2017-05-17T10:32:59.250Z,34.94
2017-05-17T10:34:11.804Z,35.03
2017-05-17T10:35:24.074Z,35.53
2017-05-17T10:36:36.646Z,35.23
2017-05-17T10:37:48.316Z,34.36
2017-05-17T10:39:00.886Z,34.06
2017-05-17T10:40:13.133Z,34.95
2017-05-17T10:41:25.429Z,35.96
2017-05-17T10:42:37.997Z,35.27
2017-05-17T10:43:50.260Z,34.97
2017-05-17T10:45:02.830Z,34.28
2017-05-17T10:46:15.113Z,33.89
2017-05-17T10:47:27.648Z,34.39
2017-05-17T10:48:39.929Z,34.39
2017-05-17T10:49:52.493Z,34.79
2017-05-17T10:51:05.068Z,35.38
2017-05-17T10:52:17.642Z,35.97
2017-05-17T10:53:30.212Z,35.5
2017-05-17T10:54:42.784Z,35.3
2017-05-17T10:55:55.047Z,34.51
2017-05-17T10:57:07.589Z,34.01
2017-05-17T10:58:19.567Z,33.23
2017-05-17T10:59:32.134Z,32.84
2017-05-17T11:00:44.385Z,32.26
2017-05-17T11:01:56.949Z,32.45
2017-05-17T11:03:09.518Z,32.77
2017-05-17T11:04:22.091Z,32.97
2017-05-17T11:05:34.626Z,33.37
2017-05-17T11:06:47.185Z,32.78
2017-05-17T11:07:59.763Z,32.29
2017-05-17T11:09:12.352Z,30.82
2017-05-17T11:10:24.898Z,31.91
2017-05-17T11:11:37.177Z,32.1
2017-05-17T11:12:49.438Z,32.1
2017-05-17T11:14:01.718Z,32.1
2017-05-17T11:15:13.984Z,31.51
2017-05-17T11:16:26.250Z,31.91
2017-05-17T11:17:38.857Z,32.03
2017-05-17T11:18:51.152Z,32.22
2017-05-17T11:20:03.413Z,31.54
2017-05-17T11:21:15.967Z,32.04
2017-05-17T11:22:28.261Z,32.04
2017-05-17T11:23:40.537Z,32.24
2017-05-17T11:24:52.495Z,31.74
2017-05-17T11:26:05.053Z,31.07
2017-05-17T11:27:17.049Z,30.98
2017-05-17T11:28:29.633Z,29.79
2017-05-17T11:29:42.217Z,30.39
2017-05-17T11:30:54.200Z,30.87
2017-05-17T11:32:06.449Z,31.36
2017-05-17T11:33:18.702Z,31.96
2017-05-17T11:34:31.273Z,31.36
2017-05-17T11:35:43.819Z,30.77
2017-05-17T11:36:56.364Z,30.79
2017-05-17T11:38:08.929Z,31.29
2017-05-17T11:39:21.504Z,31.29
2017-05-17T11:40:34.099Z,31.29
2017-05-17T11:41:46.344Z,30.8
2017-05-17T11:42:58.920Z,30.91
2017-05-17T11:44:10.866Z,30.81
2017-05-17T11:45:23.459Z,29.92
2017-05-17T11:46:35.732Z,29.54
2017-05-17T11:47:48.303Z,29.04
2017-05-17T11:49:00.571Z,29.33
2017-05-17T11:50:13.148Z,30.21
2017-05-17T11:51:25.406Z,30.6
2017-05-17T11:52:37.965Z,30.1
2017-05-17T11:53:50.522Z,30.62
2017-05-17T11:55:03.078Z,29.52
2017-05-17T11:56:15.349Z,29.61
2017-05-17T11:57:27.622Z,30.21
2017-05-17T11:58:39.892Z,30
2017-05-17T11:59:51.552Z,30.12
2017-05-17T12:01:04.131Z,29.72
2017-05-17T12:02:16.120Z,30.1
2017-05-17T12:03:28.367Z,30.1
2017-05-17T12:04:40.922Z,30.21
2017-05-17T12:05:52.941Z,30.79
2017-05-17T12:07:05.210Z,30.39
2017-05-17T12:08:17.482Z,29.99
2017-05-17T12:09:30.079Z,30.1
2017-05-17T12:10:42.628Z,30.41
2017-05-17T12:11:55.161Z,30.4
2017-05-17T12:13:07.731Z,30.8
2017-05-17T12:14:20.013Z,30.3
2017-05-17T12:15:32.261Z,30.1
2017-05-17T12:16:44.827Z,29.99
2017-05-17T12:17:57.093Z,29.39
2017-05-17T12:19:09.669Z,29.78
2017-05-17T12:20:22.219Z,30.16
2017-05-17T12:21:34.782Z,31.35
2017-05-17T12:22:47.383Z,30.54
2017-05-17T12:23:59.630Z,29.93
2017-05-17T12:25:11.303Z,30.33
2017-05-17T12:26:23.586Z,30.82
2017-05-17T12:27:35.841Z,30.74
2017-05-17T12:28:48.408Z,30.64
2017-05-17T12:30:00.982Z,31.41
2017-05-17T12:31:12.979Z,31.02
2017-05-17T12:32:25.303Z,31.02
2017-05-17T12:33:37.863Z,31.12
2017-05-17T12:34:50.433Z,32.21
2017-05-17T12:36:02.433Z,31.22
2017-05-17T12:37:15.025Z,31.4
2017-05-17T12:38:27.824Z,31.62
2017-05-17T12:39:40.093Z,32.19
2017-05-17T12:40:52.673Z,31.2
2017-05-17T12:42:05.266Z,31.4
2017-05-17T12:43:17.291Z,31.3
2017-05-17T12:44:29.884Z,31.4
2017-05-17T12:45:42.457Z,31.9
2017-05-17T12:46:54.717Z,32.31
2017-05-17T12:48:07.296Z,31.51
2017-05-17T12:49:19.545Z,30.92
2017-05-17T12:50:32.086Z,30.15
2017-05-17T12:51:44.681Z,30.15
2017-05-17T12:52:57.247Z,30.55
2017-05-17T12:54:09.204Z,30.74
2017-05-17T12:55:21.766Z,32.04
2017-05-17T12:56:33.710Z,31.05
2017-05-17T12:57:45.938Z,31.15
2017-05-17T12:58:58.513Z,30.57
2017-05-17T13:00:10.777Z,30.08
2017-05-17T13:01:23.344Z,29.97
2017-05-17T13:02:35.897Z,30.29
2017-05-17T13:03:48.171Z,29.68
2017-05-17T13:05:00.143Z,29.97
2017-05-17T13:06:12.705Z,29.97
2017-05-17T13:07:24.982Z,29.97
2017-05-17T13:08:37.243Z,30.18
2017-05-17T13:09:49.501Z,30.85
2017-05-17T13:11:02.074Z,29.97
2017-05-17T13:12:14.342Z,29.58
2017-05-17T13:13:26.615Z,30.08
2017-05-17T13:14:39.181Z,30.36
2017-05-17T13:15:51.752Z,30.46
2017-05-17T13:17:04.315Z,30.74
2017-05-17T13:18:16.569Z,31.53
2017-05-17T13:19:29.121Z,31.22
2017-05-17T13:20:41.664Z,31.3
2017-05-17T13:21:53.932Z,32.28
2017-05-17T13:23:06.207Z,32.57
2017-05-17T13:24:18.773Z,32.07
2017-05-17T13:25:31.340Z,31.38
2017-05-17T13:26:43.918Z,31.19
2017-05-17T13:27:56.178Z,32.06
2017-05-17T13:29:08.735Z,33.54
2017-05-17T13:30:21.279Z,32.06
2017-05-17T13:31:33.866Z,32.06
2017-05-17T13:32:46.427Z,30.68
2017-05-17T13:33:58.716Z,30.68
2017-05-17T13:35:11.287Z,31.96
2017-05-17T13:36:23.535Z,31.65
2017-05-17T13:37:36.095Z,31.45
2017-05-17T13:38:48.899Z,31.14
2017-05-17T13:40:01.465Z,32.13
2017-05-17T13:41:14.044Z,32.03
2017-05-17T13:42:26.042Z,31.73
2017-05-17T13:43:38.604Z,32.03
2017-05-17T13:44:50.582Z,32.21
2017-05-17T13:46:03.149Z,33.41
2017-05-17T13:47:15.716Z,33.39
2017-05-17T13:48:28.285Z,33.91
2017-05-17T13:49:40.841Z,33.22
2017-05-17T13:50:53.384Z,32.82
2017-05-17T13:52:05.929Z,32.23
2017-05-17T13:53:18.176Z,31.93
2017-05-17T13:54:30.771Z,32.32
2017-05-17T13:55:43.041Z,32.92
2017-05-17T13:56:55.616Z,33.11
2017-05-17T13:58:07.878Z,32.13
2017-05-17T13:59:20.150Z,32.32
2017-05-17T14:00:32.421Z,32.13
2017-05-17T14:01:44.967Z,31.93
2017-05-17T14:02:57.534Z,31.93
2017-05-17T14:04:09.484Z,31.93
2017-05-17T14:05:21.763Z,31.83
2017-05-17T14:06:34.297Z,33
2017-05-17T14:07:46.250Z,32.98
2017-05-17T14:08:58.543Z,32.89
2017-05-17T14:10:10.816Z,32.89
2017-05-17T14:11:23.382Z,32.69
2017-05-17T14:12:35.930Z,32.98
2017-05-17T14:13:48.210Z,32.98
2017-05-17T14:15:00.472Z,33.28
2017-05-17T14:16:13.046Z,32.77
2017-05-17T14:17:24.721Z,32.76
2017-05-17T14:18:37.014Z,33.15
2017-05-17T14:19:49.588Z,33.26
2017-05-17T14:21:02.173Z,33.46
2017-05-17T14:22:14.722Z,33.56
2017-05-17T14:23:26.973Z,33.62
2017-05-17T14:24:39.518Z,34.7
2017-05-17T14:25:52.157Z,35.47
2017-05-17T14:27:04.732Z,35.28
2017-05-17T14:28:17.287Z,35.66
2017-05-17T14:29:29.577Z,34.28
2017-05-17T14:30:41.823Z,35.06
2017-05-17T14:31:54.365Z,35.46
2017-05-17T14:33:06.337Z,35.93
2017-05-17T14:34:18.664Z,35.42
2017-05-17T14:35:31.224Z,35.21
2017-05-17T14:36:43.477Z,35.5
2017-05-17T14:37:56.320Z,35.88
2017-05-17T14:39:08.893Z,35.88
2017-05-17T14:40:21.462Z,35.97
2017-05-17T14:41:34.028Z,35.97
2017-05-17T14:42:46.578Z,36.16
2017-05-17T14:43:59.149Z,36.43
2017-05-17T14:45:11.697Z,37.29
2017-05-17T14:46:24.251Z,38.16
2017-05-17T14:47:36.495Z,39.43
2017-05-17T14:48:49.067Z,40.09
2017-05-17T14:50:01.303Z,39.78
2017-05-17T14:51:13.829Z,39.69
2017-05-17T14:52:26.096Z,40.45
2017-05-17T14:53:38.695Z,41.62
2017-05-17T14:54:50.959Z,40.92
2017-05-17T14:56:03.216Z,40.72
2017-05-17T14:57:15.158Z,40.99
2017-05-17T14:58:27.700Z,41.66
2017-05-17T14:59:40.280Z,41.63
2017-05-17T15:00:52.823Z,43.1
2017-05-17T15:02:05.363Z,43.85
2017-05-17T15:03:17.008Z,43.66
2017-05-17T15:04:29.551Z,44.15
2017-05-17T15:05:41.804Z,43.64
2017-05-17T15:06:54.063Z,43.44
2017-05-17T15:08:06.596Z,44.59
2017-05-17T15:09:19.134Z,44.4
2017-05-17T15:10:30.767Z,44.69
2017-05-17T15:11:43.336Z,44.59
2017-05-17T15:12:55.880Z,44.38
2017-05-17T15:14:08.426Z,45.15
2017-05-17T15:15:20.989Z,45.54
2017-05-17T15:16:33.560Z,45.91
2017-05-17T15:17:45.789Z,45.62
2017-05-17T15:18:58.361Z,46.2
2017-05-17T15:20:10.636Z,46.11
2017-05-17T15:21:22.897Z,47.47
2017-05-17T15:22:35.129Z,46.86
2017-05-17T15:23:47.670Z,47.44
2017-05-17T15:25:00.231Z,48.51
2017-05-17T15:26:12.456Z,48.88
2017-05-17T15:27:24.709Z,47.42
2017-05-17T15:28:36.977Z,48.1
2017-05-17T15:29:49.551Z,48.78
2017-05-17T15:31:02.115Z,49.46
2017-05-17T15:32:14.368Z,47.61
2017-05-17T15:33:26.932Z,47.88
2017-05-17T15:34:39.482Z,48.66
2017-05-17T15:35:52.032Z,48.27
2017-05-17T15:37:04.569Z,48.75